SAEZ/EZE METAR and TAF weather

Enter ICAO airport designator
Station Type Date Time Source
SAEZ METAR 2021/02/27 09:00 UTC NOAA

SAEZ 270900Z 07008KT CAVOK 23/19 Q1018 NOSIG


Station Type Date Time Source
SAEZ Decoded METAR 2021/02/27 09:00 UTC NOAA

Ezeiza Aerodrome, Argentina (SAEZ) 34-49S 058-32W 20M
Feb 27, 2021 - 04:00 AM EST / 2021.02.27 0900 UTC
Wind: from the ENE (070 degrees) at 9 MPH (8 KT):0
Visibility: greater than 7 mile(s):0
Temperature: 73 F (23 C)
Dew Point: 66 F (19 C)
Relative Humidity: 78%
Pressure (altimeter): 30.06 in. Hg (1018 hPa)
ob: SAEZ 270900Z 07008KT CAVOK 23/19 Q1018 NOSIG
cycle: 9

Station Type Date Time Source
SAEZ TAF 2021/02/27 06:27 UTC NOAA

TAF TAF SAEZ 270500Z 2706/2806 07010KT CAVOK TX31/2719Z TN21/2709Z
BECMG 2711/2713 03010KT
TEMPO 2717/2722 07015G25KT
BECMG 2722/2801 10010KT
BECMG 2804/2806 05010KT

Example: see airport list